createdAt,value
2023-01-30T00:03:25.088Z,46.90
2023-01-30T00:06:49.071Z,44.60
2023-01-30T00:10:13.149Z,53.50
2023-01-30T00:13:37.796Z,47.80
2023-01-30T00:17:01.660Z,47.60
2023-01-30T00:20:25.532Z,51.70
2023-01-30T00:23:49.365Z,49.30
2023-01-30T00:27:13.356Z,51.30
2023-01-30T00:30:37.324Z,46.70
2023-01-30T00:34:01.143Z,50.90
2023-01-30T00:37:25.142Z,49.60
2023-01-30T00:40:49.801Z,57.00
2023-01-30T00:44:31.322Z,44.30
2023-01-30T00:47:55.250Z,50.20
2023-01-30T00:51:19.169Z,52.90
2023-01-30T00:54:44.831Z,58.90
2023-01-30T00:58:08.783Z,50.30
2023-01-30T01:01:32.745Z,50.30
2023-01-30T01:04:56.652Z,52.70
2023-01-30T01:08:22.662Z,58.60
2023-01-30T01:11:46.943Z,49.40
2023-01-30T01:15:13.061Z,52.00
2023-01-30T01:22:01.277Z,53.00
2023-01-30T01:25:25.754Z,55.80
2023-01-30T01:28:50.135Z,54.50
2023-01-30T01:32:15.111Z,52.30
2023-01-30T01:35:44.399Z,59.50
2023-01-30T01:39:08.503Z,55.00
2023-01-30T01:42:36.921Z,60.60
2023-01-30T01:46:10.991Z,55.40
2023-01-30T01:49:38.094Z,53.80
2023-01-30T01:53:03.228Z,54.50
2023-01-30T01:56:27.368Z,55.50
2023-01-30T01:59:55.823Z,57.30
2023-01-30T02:03:26.254Z,52.00
2023-01-30T02:06:50.170Z,59.80
2023-01-30T02:10:21.931Z,58.10
2023-01-30T02:13:48.125Z,49.60
2023-01-30T02:17:12.619Z,53.70
2023-01-30T02:20:55.154Z,46.00
2023-01-30T02:24:51.464Z,53.60
2023-01-30T02:29:02.044Z,61.90
2023-01-30T02:32:51.884Z,56.00
2023-01-30T02:36:15.940Z,49.20
2023-01-30T02:40:07.631Z,56.00
2023-01-30T02:43:54.545Z,51.50
2023-01-30T02:47:30.059Z,55.80
2023-01-30T02:51:02.895Z,51.80
2023-01-30T02:54:27.713Z,55.30
2023-01-30T02:57:51.897Z,51.90
2023-01-30T03:01:44.322Z,56.20
2023-01-30T03:05:14.700Z,54.50
2023-01-30T03:08:57.883Z,53.20
2023-01-30T03:12:33.755Z,54.70
2023-01-30T03:16:22.204Z,52.70
2023-01-30T03:19:46.480Z,53.90
2023-01-30T03:23:10.684Z,47.60
2023-01-30T03:26:38.821Z,52.20
2023-01-30T03:30:03.051Z,52.40
2023-01-30T03:33:27.189Z,51.80
2023-01-30T03:36:51.657Z,46.60
2023-01-30T03:40:17.583Z,58.10
2023-01-30T03:43:42.212Z,50.10
2023-01-30T03:47:06.703Z,53.80
2023-01-30T03:50:30.663Z,65.20
2023-01-30T03:53:54.966Z,53.40
2023-01-30T03:57:19.479Z,59.00
2023-01-30T04:00:43.605Z,48.70
2023-01-30T04:04:07.759Z,51.10
2023-01-30T04:07:31.825Z,50.70
2023-01-30T04:10:56.144Z,56.90
2023-01-30T04:14:20.662Z,54.70
2023-01-30T04:18:04.671Z,51.10
2023-01-30T04:21:35.006Z,51.20
2023-01-30T04:24:58.959Z,51.90
2023-01-30T04:28:23.164Z,52.40
2023-01-30T04:31:47.095Z,49.30
2023-01-30T04:35:20.440Z,55.20
2023-01-30T04:38:46.680Z,58.10
2023-01-30T04:42:10.685Z,49.20
2023-01-30T04:45:44.757Z,50.70
2023-01-30T04:49:11.091Z,53.70
2023-01-30T04:52:35.014Z,57.30
2023-01-30T04:55:58.888Z,49.30
2023-01-30T04:59:23.634Z,43.00
2023-01-30T05:02:50.364Z,41.30
2023-01-30T05:06:14.385Z,49.90
2023-01-30T05:09:38.616Z,45.10
2023-01-30T05:13:06.539Z,47.50
2023-01-30T05:16:30.945Z,48.50
2023-01-30T05:19:54.769Z,45.50
2023-01-30T05:23:18.614Z,45.30
2023-01-30T05:26:42.499Z,44.50
2023-01-30T05:30:07.097Z,43.50
2023-01-30T05:33:33.324Z,44.60
2023-01-30T05:36:57.371Z,48.10
2023-01-30T05:40:21.218Z,45.80
2023-01-30T05:43:45.953Z,43.30
2023-01-30T05:47:09.791Z,43.70
2023-01-30T05:50:33.783Z,42.50
2023-01-30T05:53:57.923Z,45.20
2023-01-30T05:57:21.819Z,44.30
2023-01-30T06:00:45.644Z,35.60
2023-01-30T06:04:09.702Z,38.80
2023-01-30T06:07:33.515Z,33.80
2023-01-30T06:11:02.449Z,40.10
2023-01-30T06:14:26.366Z,40.80
2023-01-30T06:17:50.483Z,42.20
2023-01-30T06:21:15.524Z,43.30
2023-01-30T06:24:39.477Z,43.90
2023-01-30T06:28:03.284Z,42.00
2023-01-30T06:31:27.180Z,39.50
2023-01-30T06:34:51.118Z,41.70
2023-01-30T06:38:14.939Z,39.10
2023-01-30T06:41:38.746Z,44.70
2023-01-30T06:45:03.002Z,42.60
2023-01-30T06:48:27.916Z,39.80
2023-01-30T06:51:51.818Z,38.00
2023-01-30T06:55:18.444Z,40.30
2023-01-30T06:58:42.572Z,43.70
2023-01-30T07:02:07.586Z,47.00
2023-01-30T07:05:31.997Z,44.90
2023-01-30T07:08:58.545Z,45.90
2023-01-30T07:12:22.543Z,49.30
2023-01-30T07:15:46.808Z,53.60
2023-01-30T07:19:10.831Z,50.80
2023-01-30T07:22:34.780Z,50.00
2023-01-30T07:25:59.033Z,50.00
2023-01-30T07:29:23.162Z,54.60
2023-01-30T07:32:51.291Z,48.80
2023-01-30T07:36:15.407Z,48.90
2023-01-30T07:39:39.255Z,44.70
2023-01-30T07:43:06.100Z,39.80
2023-01-30T07:46:35.089Z,41.00
2023-01-30T07:49:59.057Z,42.80
2023-01-30T07:53:23.025Z,40.70
2023-01-30T07:56:46.893Z,40.60
2023-01-30T08:00:12.370Z,35.30
2023-01-30T08:03:36.262Z,31.20
2023-01-30T08:07:00.265Z,37.10
2023-01-30T08:10:24.964Z,37.40
2023-01-30T08:13:49.678Z,35.90
2023-01-30T08:17:13.818Z,37.00
2023-01-30T08:20:38.295Z,33.40
2023-01-30T08:24:02.127Z,28.60
2023-01-30T08:27:26.127Z,35.20
2023-01-30T08:30:52.122Z,33.40
2023-01-30T08:37:41.894Z,28.00
2023-01-30T08:44:32.559Z,27.90
2023-01-30T08:48:04.555Z,30.10
2023-01-30T08:51:28.416Z,28.00
2023-01-30T08:54:52.298Z,32.30
2023-01-30T08:58:16.178Z,46.60
2023-01-30T09:01:40.081Z,56.40
2023-01-30T09:05:04.677Z,41.10
2023-01-30T09:08:28.563Z,39.80
2023-01-30T09:11:53.118Z,39.60
2023-01-30T09:15:17.243Z,38.00
2023-01-30T09:18:43.103Z,33.30
2023-01-30T09:25:31.382Z,36.30
2023-01-30T09:28:55.339Z,29.30
2023-01-30T09:32:19.483Z,38.20
2023-01-30T09:35:43.936Z,36.30
2023-01-30T09:39:08.146Z,37.80
2023-01-30T09:42:50.743Z,36.20
2023-01-30T09:46:31.354Z,33.40
2023-01-30T09:50:18.043Z,33.70
2023-01-30T09:54:04.145Z,39.40
2023-01-30T09:57:28.680Z,34.40
2023-01-30T10:00:57.237Z,35.00
2023-01-30T10:05:00.949Z,36.50
2023-01-30T10:08:56.891Z,36.40
2023-01-30T10:12:42.982Z,32.00
2023-01-30T10:16:22.800Z,40.60
2023-01-30T10:19:52.816Z,37.10
2023-01-30T10:23:32.117Z,35.20
2023-01-30T10:26:58.487Z,38.00
2023-01-30T10:30:22.937Z,35.70
2023-01-30T10:34:04.247Z,34.90
2023-01-30T10:37:37.484Z,32.70
2023-01-30T10:41:23.100Z,32.70
2023-01-30T10:44:47.896Z,32.50
2023-01-30T10:48:42.599Z,33.10
2023-01-30T10:52:27.292Z,38.20
2023-01-30T10:55:57.577Z,36.80
2023-01-30T10:59:43.389Z,34.40
2023-01-30T11:03:21.714Z,38.50
2023-01-30T11:06:45.893Z,37.10
2023-01-30T11:10:29.025Z,38.30
2023-01-30T11:14:14.516Z,36.20
2023-01-30T11:17:42.433Z,37.80
2023-01-30T11:21:09.715Z,40.10
2023-01-30T11:24:42.360Z,38.30
2023-01-30T11:28:07.238Z,41.90
2023-01-30T11:31:41.232Z,38.00
2023-01-30T11:35:11.376Z,37.30
2023-01-30T11:38:41.263Z,47.60
2023-01-30T11:42:11.971Z,37.50
2023-01-30T11:45:39.695Z,42.40
2023-01-30T11:49:45.424Z,41.90
2023-01-30T11:53:05.251Z,42.60
2023-01-30T11:56:48.591Z,45.30
2023-01-30T12:00:24.970Z,44.90
2023-01-30T12:03:54.267Z,43.40
2023-01-30T12:07:30.109Z,45.40
2023-01-30T12:10:59.841Z,45.50
2023-01-30T12:14:32.776Z,44.20
2023-01-30T12:18:06.446Z,43.00
2023-01-30T12:21:38.408Z,39.60
2023-01-30T12:25:17.445Z,44.20
2023-01-30T12:29:03.173Z,43.80
2023-01-30T12:32:30.029Z,39.00
2023-01-30T12:36:15.119Z,44.10
2023-01-30T12:40:03.569Z,40.60
2023-01-30T12:43:44.910Z,38.70
2023-01-30T12:47:47.147Z,38.40
2023-01-30T12:51:23.453Z,46.30
2023-01-30T12:58:36.085Z,46.40
2023-01-30T13:02:21.862Z,42.80
2023-01-30T13:06:28.931Z,40.00
2023-01-30T13:10:09.856Z,34.10
2023-01-30T13:13:44.990Z,41.60
2023-01-30T13:17:11.751Z,41.70
2023-01-30T13:20:53.801Z,40.60
2023-01-30T13:24:46.612Z,40.30
2023-01-30T13:28:19.022Z,34.70
2023-01-30T13:31:56.951Z,39.50
2023-01-30T13:35:25.693Z,38.90
2023-01-30T13:39:05.909Z,39.50
2023-01-30T13:43:01.792Z,42.60
2023-01-30T13:46:30.555Z,42.00
2023-01-30T13:50:02.346Z,42.80
2023-01-30T13:53:39.960Z,43.20
2023-01-30T13:57:10.377Z,40.60
2023-01-30T14:00:36.895Z,38.80
2023-01-30T14:04:44.796Z,47.00
2023-01-30T14:08:18.643Z,41.30
2023-01-30T14:11:51.843Z,40.20
2023-01-30T14:15:15.799Z,45.60
2023-01-30T14:18:40.238Z,46.20
2023-01-30T14:22:21.708Z,43.10
2023-01-30T14:25:48.548Z,44.20
2023-01-30T14:29:12.419Z,45.60
2023-01-30T14:33:07.250Z,44.30
2023-01-30T14:37:07.213Z,45.80
2023-01-30T14:41:14.219Z,50.20
2023-01-30T14:45:13.205Z,44.70
2023-01-30T14:49:34.239Z,43.00
2023-01-30T14:53:32.173Z,44.20
2023-01-30T14:57:43.180Z,46.10
2023-01-30T15:01:41.548Z,47.80
2023-01-30T15:05:47.338Z,45.40
2023-01-30T15:09:46.237Z,49.30
2023-01-30T15:14:12.272Z,46.50
2023-01-30T15:18:40.130Z,46.80
2023-01-30T15:23:00.221Z,49.30
2023-01-30T15:27:30.160Z,44.60
2023-01-30T15:31:33.284Z,41.10
2023-01-30T15:35:31.139Z,40.20
2023-01-30T15:39:38.195Z,49.70
2023-01-30T15:43:51.228Z,45.80
2023-01-30T15:48:09.796Z,79.80
2023-01-30T15:52:08.119Z,92.10
2023-01-30T15:56:08.169Z,106.30
2023-01-30T16:00:09.106Z,70.70
2023-01-30T16:04:07.129Z,57.10
2023-01-30T16:08:23.148Z,50.60
2023-01-30T16:12:47.126Z,49.10
2023-01-30T16:16:47.155Z,50.10
2023-01-30T16:21:02.084Z,57.40
2023-01-30T16:25:05.122Z,54.10
2023-01-30T16:29:05.152Z,54.20
2023-01-30T16:37:02.101Z,63.40
2023-01-30T16:41:01.295Z,68.00
2023-01-30T16:44:59.075Z,57.90
2023-01-30T16:48:58.015Z,46.90
2023-01-30T16:53:02.249Z,43.80
2023-01-30T16:57:03.336Z,53.60
2023-01-30T17:01:05.420Z,48.70
2023-01-30T17:05:03.244Z,48.60
2023-01-30T17:09:10.694Z,44.00
2023-01-30T17:13:08.113Z,51.90
2023-01-30T17:17:20.185Z,45.00
2023-01-30T17:21:20.836Z,49.00
2023-01-30T17:25:30.177Z,40.90
2023-01-30T17:29:47.358Z,50.10
2023-01-30T17:33:48.986Z,42.60
2023-01-30T17:37:53.207Z,47.00
2023-01-30T17:41:58.997Z,41.90
2023-01-30T17:45:57.749Z,45.20
2023-01-30T17:50:00.187Z,45.60
2023-01-30T17:53:59.167Z,41.40
2023-01-30T17:57:59.334Z,43.60
2023-01-30T18:02:03.951Z,43.60
2023-01-30T18:06:06.970Z,38.30
2023-01-30T18:10:07.055Z,35.40
2023-01-30T18:14:08.002Z,35.20
2023-01-30T18:18:05.952Z,36.80
2023-01-30T18:22:04.899Z,36.10
2023-01-30T18:26:02.909Z,31.60
2023-01-30T18:30:00.906Z,37.90
2023-01-30T18:33:58.930Z,51.50
2023-01-30T18:38:02.372Z,43.50
2023-01-30T18:42:00.886Z,49.20
2023-01-30T18:45:58.986Z,47.80
2023-01-30T18:49:59.528Z,44.40
2023-01-30T18:53:57.931Z,45.10
2023-01-30T18:57:55.851Z,38.70
2023-01-30T19:01:54.966Z,40.60
2023-01-30T19:05:53.045Z,42.10
2023-01-30T19:09:51.078Z,39.00
2023-01-30T19:13:48.843Z,40.70
2023-01-30T19:17:46.860Z,37.40
2023-01-30T19:21:45.828Z,43.70
2023-01-30T19:25:43.910Z,36.90
2023-01-30T19:29:41.866Z,36.20
2023-01-30T19:33:39.982Z,37.60
2023-01-30T19:37:37.799Z,39.60
2023-01-30T19:41:42.107Z,41.70
2023-01-30T19:45:39.772Z,40.00
2023-01-30T19:49:37.843Z,36.50
2023-01-30T19:53:37.778Z,36.30
2023-01-30T19:57:35.837Z,35.30
2023-01-30T20:01:36.981Z,37.90
2023-01-30T20:05:34.874Z,37.50
2023-01-30T20:09:33.849Z,33.70
2023-01-30T20:13:31.762Z,35.80
2023-01-30T20:17:29.802Z,37.60
2023-01-30T20:21:29.824Z,34.30
2023-01-30T20:25:27.691Z,37.70
2023-01-30T20:29:25.983Z,34.90
2023-01-30T20:33:23.713Z,31.40
2023-01-30T20:37:21.869Z,33.20
2023-01-30T20:41:22.717Z,31.10
2023-01-30T20:45:22.095Z,31.20
2023-01-30T20:49:20.732Z,26.80
2023-01-30T20:53:18.781Z,24.00
2023-01-30T20:57:16.854Z,26.60
2023-01-30T21:01:22.776Z,26.00
2023-01-30T21:05:21.054Z,26.90
2023-01-30T21:09:19.732Z,24.80
2023-01-30T21:13:17.675Z,26.60
2023-01-30T21:17:15.809Z,31.90
2023-01-30T21:21:14.665Z,29.20
2023-01-30T21:25:12.774Z,27.90
2023-01-30T21:29:11.668Z,27.90
2023-01-30T21:33:09.749Z,26.80
2023-01-30T21:37:24.597Z,29.60
2023-01-30T21:41:43.686Z,32.60
2023-01-30T21:45:41.689Z,30.30
2023-01-30T21:49:41.802Z,31.00
2023-01-30T21:53:40.618Z,27.50
2023-01-30T21:57:39.120Z,25.50
2023-01-30T22:01:37.689Z,32.10
2023-01-30T22:05:42.730Z,25.70
2023-01-30T22:09:40.607Z,25.30
2023-01-30T22:13:38.714Z,24.50
2023-01-30T22:17:36.584Z,26.40
2023-01-30T22:21:38.768Z,27.70
2023-01-30T22:25:36.616Z,30.20
2023-01-30T22:29:36.136Z,27.40
2023-01-30T22:33:33.540Z,30.10
2023-01-30T22:37:31.676Z,27.40
2023-01-30T22:41:33.559Z,26.70
2023-01-30T22:45:31.564Z,28.10
2023-01-30T22:49:29.636Z,26.90
2023-01-30T22:53:27.642Z,26.90
2023-01-30T22:57:26.543Z,26.70
2023-01-30T23:01:37.087Z,44.80
2023-01-30T23:05:34.532Z,24.90
2023-01-30T23:09:35.669Z,26.50
2023-01-30T23:13:33.509Z,25.10
2023-01-30T23:17:49.520Z,21.60
2023-01-30T23:21:55.477Z,22.60
2023-01-30T23:25:56.620Z,24.00
2023-01-30T23:29:54.470Z,25.40
2023-01-30T23:33:52.498Z,21.40
2023-01-30T23:38:08.579Z,24.10
2023-01-30T23:42:06.522Z,24.30
2023-01-30T23:46:05.484Z,21.00
2023-01-30T23:50:03.478Z,22.70
2023-01-30T23:54:01.428Z,24.20
2023-01-30T23:57:59.495Z,25.30
